Time;durP1;ratioP1;P1;durP2;ratioP2;P2;SDS_P1;SDS_P2;PMS_P1;PMS_P2;Temp;Humidity;BMP_temperature;BMP_pressure;BME280_temperature;BME280_humidity;BME280_pressure;Samples;Min_cycle;Max_cycle;Signal;HPM_P1;HPM_P2
2021/12/10 00:00:59;;;;;;;36.78;19.90;;;4.80;99.90;;;;;;4893851;29;20111;-68
2021/12/10 00:03:44;;;;;;;33.13;19.10;;;4.50;99.90;;;;;;4906441;29;20044;-68
2021/12/10 00:06:15;;;;;;;36.17;20.48;;;4.40;99.90;;;;;;4912504;29;20052;-67
2021/12/10 00:08:45;;;;;;;39.20;20.05;;;4.30;99.90;;;;;;4916490;29;20056;-68
2021/12/10 00:11:21;;;;;;;36.60;20.63;;;4.40;99.90;;;;;;4883054;29;20348;-68
2021/12/10 00:13:48;;;;;;;37.28;19.65;;;4.60;99.90;;;;;;4900758;29;20501;-68
2021/12/10 00:16:15;;;;;;;36.13;20.52;;;4.70;99.90;;;;;;4884607;29;20056;-67
2021/12/10 00:18:47;;;;;;;40.67;20.17;;;4.50;99.90;;;;;;4901553;29;20148;-67
2021/12/10 00:21:13;;;;;;;32.50;19.70;;;4.40;99.90;;;;;;4884962;29;20052;-67
2021/12/10 00:23:39;;;;;;;35.63;18.95;;;4.40;99.90;;;;;;4901376;29;20613;-68
2021/12/10 00:26:05;;;;;;;35.67;19.35;;;4.50;99.90;;;;;;4890143;29;20401;-68
2021/12/10 00:28:35;;;;;;;39.13;21.00;;;4.10;99.90;;;;;;4919389;29;20505;-68
2021/12/10 00:34:08;;;;;;;33.63;18.77;;;4.50;99.90;;;;;;4889074;29;20518;-67
2021/12/10 00:36:36;;;;;;;34.15;18.05;;;4.50;99.90;;;;;;4899760;29;20057;-68
2021/12/10 00:39:06;;;;;;;34.22;18.67;;;4.60;99.90;;;;;;4903263;29;20048;-68
2021/12/10 00:41:32;;;;;;;31.00;19.42;;;4.50;99.90;;;;;;4915103;29;20412;-67
2021/12/10 00:43:58;;;;;;;36.63;19.95;;;4.60;99.90;;;;;;4902698;29;20056;-67
2021/12/10 00:46:23;;;;;;;36.63;19.48;;;5.10;99.90;;;;;;4919752;29;20439;-68
2021/12/10 00:48:49;;;;;;;32.33;18.17;;;4.60;99.90;;;;;;4902225;29;20094;-69
2021/12/10 00:51:15;;;;;;;35.35;19.50;;;4.50;99.90;;;;;;4919581;29;20056;-68
2021/12/10 00:53:42;;;;;;;32.50;18.13;;;4.60;99.90;;;;;;4899365;29;20051;-67
2021/12/10 00:56:08;;;;;;;32.05;19.25;;;4.40;99.90;;;;;;4915388;29;20052;-68
2021/12/10 00:58:35;;;;;;;31.25;18.75;;;4.60;99.90;;;;;;4919607;29;20127;-69
2021/12/10 01:01:05;;;;;;;31.58;18.77;;;4.40;99.90;;;;;;4919130;29;20052;-68
2021/12/10 01:03:37;;;;;;;30.98;19.08;;;4.50;99.90;;;;;;4917827;29;20493;-67
2021/12/10 01:06:06;;;;;;;35.15;19.02;;;4.50;99.90;;;;;;4908896;29;20052;-68
2021/12/10 01:08:35;;;;;;;31.67;17.70;;;4.50;99.90;;;;;;4918945;29;20056;-67
2021/12/10 01:11:11;;;;;;;34.35;18.02;;;4.90;99.90;;;;;;4901988;29;20067;-68
2021/12/10 01:13:39;;;;;;;29.98;17.73;;;4.60;99.90;;;;;;4919033;29;20501;-68
2021/12/10 01:27:26;;;;;;;26.88;16.35;;;4.50;99.90;;;;;;4917918;29;20104;-68
2021/12/10 01:29:56;;;;;;;24.92;15.45;;;4.90;99.90;;;;;;4909833;29;20036;-67
2021/12/10 01:32:24;;;;;;;28.98;16.25;;;4.80;99.90;;;;;;4919281;29;20083;-67
2021/12/10 01:34:50;;;;;;;30.38;16.95;;;4.70;99.90;;;;;;4899940;29;20047;-69
2021/12/10 01:37:16;;;;;;;24.67;15.88;;;4.50;99.90;;;;;;4915182;29;20127;-67
2021/12/10 01:39:43;;;;;;;27.27;16.77;;;4.60;99.90;;;;;;4918205;29;20079;-68
2021/12/10 01:42:19;;;;;;;38.05;15.40;;;4.60;99.90;;;;;;4901361;29;20051;-68
2021/12/10 01:44:51;;;;;;;25.48;13.40;;;4.80;99.90;;;;;;4896775;29;20135;-68
2021/12/10 01:47:18;;;;;;;;;;;4.50;99.90;;;;;;4900595;29;20087;-68
2021/12/10 01:49:44;;;;;;;22.33;13.73;;;4.30;99.90;;;;;;4894512;29;19923;-67
2021/12/10 01:52:13;;;;;;;26.85;13.77;;;4.60;99.90;;;;;;4918328;29;20083;-68
2021/12/10 01:54:46;;;;;;;20.15;13.55;;;4.40;99.90;;;;;;4897585;29;20106;-68
2021/12/10 01:57:13;;;;;;;23.52;14.15;;;4.50;99.90;;;;;;4917922;29;20086;-69
2021/12/10 01:59:41;;;;;;;26.83;14.27;;;4.40;99.90;;;;;;4918700;29;20051;-68
2021/12/10 02:02:15;;;;;;;24.55;13.85;;;4.50;99.90;;;;;;4917906;29;20498;-68
2021/12/10 02:04:42;;;;;;;24.23;14.70;;;4.20;99.90;;;;;;4918466;29;20059;-67
2021/12/10 02:07:11;;;;;;;25.90;14.65;;;4.20;99.90;;;;;;4903615;29;20056;-68
2021/12/10 02:09:37;;;;;;;24.33;13.77;;;4.30;99.90;;;;;;4895513;29;20067;-66
2021/12/10 02:12:06;;;;;;;27.67;14.52;;;4.70;99.90;;;;;;4895720;29;20057;-67
2021/12/10 02:14:32;;;;;;;27.27;14.55;;;4.30;99.90;;;;;;4896172;29;20057;-67
2021/12/10 02:16:59;;;;;;;24.95;13.90;;;4.70;99.90;;;;;;4898935;29;20501;-68
2021/12/10 02:19:26;;;;;;;23.90;13.95;;;4.30;99.90;;;;;;4908573;29;20090;-67
2021/12/10 02:21:52;;;;;;;22.98;14.52;;;4.40;99.90;;;;;;4899002;29;20079;-67
2021/12/10 02:24:18;;;;;;;22.30;14.15;;;4.20;99.90;;;;;;4899545;29;20056;-67
2021/12/10 02:26:53;;;;;;;19.83;13.38;;;4.30;99.90;;;;;;4900462;29;20088;-67
2021/12/10 02:29:23;;;;;;;23.40;13.50;;;4.20;99.90;;;;;;4906281;29;20151;-67
2021/12/10 02:31:49;;;;;;;23.55;13.82;;;4.30;99.90;;;;;;4896305;29;20135;-68
2021/12/10 02:34:15;;;;;;;25.42;14.32;;;4.60;99.90;;;;;;4917544;29;20100;-68
2021/12/10 02:36:42;;;;;;;25.95;14.30;;;4.30;99.90;;;;;;4917168;29;20062;-67
2021/12/10 02:39:11;;;;;;;22.88;13.45;;;4.20;99.90;;;;;;4909078;29;20417;-68
2021/12/10 02:41:37;;;;;;;26.48;14.07;;;4.20;99.90;;;;;;4917535;29;20056;-67
2021/12/10 02:44:04;;;;;;;24.05;13.98;;;4.10;99.90;;;;;;4916162;29;20087;-68
2021/12/10 02:46:30;;;;;;;19.63;12.70;;;4.20;99.90;;;;;;4917052;29;20493;-68
2021/12/10 02:48:56;;;;;;;22.98;13.32;;;4.30;99.90;;;;;;4908654;29;20049;-67
2021/12/10 02:51:22;;;;;;;23.88;13.73;;;4.60;99.90;;;;;;4917967;29;20063;-68
2021/12/10 02:53:48;;;;;;;23.38;13.45;;;4.50;99.90;;;;;;4917874;29;20059;-68
2021/12/10 02:56:18;;;;;;;21.35;13.40;;;4.20;99.90;;;;;;4903523;29;20056;-67
2021/12/10 02:58:46;;;;;;;24.10;13.73;;;4.70;99.90;;;;;;4900043;29;20324;-68
2021/12/10 03:01:38;;;;;;;20.65;13.48;;;4.20;99.90;;;;;;4916245;29;20067;-67
2021/12/10 03:04:07;;;;;;;19.50;12.83;;;4.30;99.90;;;;;;4899865;29;20052;-67
2021/12/10 03:06:37;;;;;;;25.75;14.65;;;4.30;99.90;;;;;;4914736;29;20311;-67
2021/12/10 03:09:04;;;;;;;23.42;14.27;;;4.30;99.90;;;;;;4884181;29;20064;-67
2021/12/10 03:11:34;;;;;;;21.73;13.50;;;4.50;99.90;;;;;;4885031;29;20059;-68
2021/12/10 03:14:09;;;;;;;24.40;13.73;;;4.00;99.90;;;;;;4900448;29;20048;-67
2021/12/10 03:16:37;;;;;;;24.50;14.93;;;4.20;99.90;;;;;;4915011;29;20378;-69
2021/12/10 03:19:04;;;;;;;21.35;14.15;;;4.30;99.90;;;;;;4892883;29;20176;-68
2021/12/10 03:21:29;;;;;;;26.15;15.95;;;4.30;99.90;;;;;;4917137;29;20104;-67
2021/12/10 03:24:01;;;;;;;28.30;17.08;;;4.30;99.90;;;;;;4917363;29;20573;-66
2021/12/10 03:26:27;;;;;;;25.02;15.95;;;4.30;99.90;;;;;;4916320;29;20183;-67
2021/12/10 03:28:53;;;;;;;22.15;16.30;;;4.60;99.90;;;;;;4897269;29;20131;-67
2021/12/10 03:31:22;;;;;;;27.50;17.48;;;4.60;99.90;;;;;;4898451;29;20385;-68
2021/12/10 03:33:48;;;;;;;24.75;16.95;;;4.20;99.90;;;;;;4918228;29;20521;-67
2021/12/10 03:36:15;;;;;;;23.02;16.02;;;4.20;99.90;;;;;;4918529;29;20096;-66
2021/12/10 03:38:41;;;;;;;25.48;16.92;;;4.10;99.90;;;;;;4894979;29;20059;-67
2021/12/10 03:41:09;;;;;;;25.25;16.13;;;4.10;99.90;;;;;;4916060;29;20059;-66
2021/12/10 03:43:35;;;;;;;21.52;16.48;;;4.10;99.90;;;;;;4899981;29;20064;-67
2021/12/10 03:46:02;;;;;;;21.75;17.23;;;4.30;99.90;;;;;;4916614;29;20488;-69
2021/12/10 03:48:35;;;;;;;27.20;17.67;;;4.00;99.90;;;;;;4884033;29;20111;-68
2021/12/10 03:51:06;;;;;;;24.85;16.65;;;4.00;99.90;;;;;;4922402;29;20488;-68
2021/12/10 03:53:32;;;;;;;26.30;16.95;;;4.00;99.90;;;;;;4901111;29;20060;-68
2021/12/10 03:56:02;;;;;;;27.75;17.52;;;4.00;99.90;;;;;;4918554;29;20051;-67
2021/12/10 03:58:27;;;;;;;24.40;17.17;;;3.90;99.90;;;;;;4902196;29;20056;-68
2021/12/10 04:00:55;;;;;;;24.80;17.35;;;3.90;99.90;;;;;;4910719;29;20067;-67
2021/12/10 04:03:23;;;;;;;30.42;16.52;;;3.90;99.90;;;;;;4915977;29;20075;-67
2021/12/10 04:05:49;;;;;;;25.80;16.73;;;3.80;99.90;;;;;;4910748;29;20111;-68
2021/12/10 04:08:15;;;;;;;25.48;16.63;;;3.80;99.90;;;;;;4900538;29;20088;-67
2021/12/10 04:10:53;;;;;;;21.17;16.23;;;3.80;99.90;;;;;;4899957;29;20063;-67
2021/12/10 04:13:20;;;;;;;21.98;15.50;;;3.70;99.90;;;;;;4899730;29;20064;-67
2021/12/10 04:15:46;;;;;;;24.27;15.52;;;3.70;99.90;;;;;;4897262;29;20486;-68
2021/12/10 04:18:12;;;;;;;24.33;15.75;;;3.70;99.90;;;;;;4900289;29;20056;-66
2021/12/10 04:20:39;;;;;;;27.70;15.65;;;3.90;99.90;;;;;;4901564;29;20136;-67
2021/12/10 04:23:09;;;;;;;24.98;15.60;;;3.70;99.90;;;;;;4897714;29;20143;-67
2021/12/10 04:25:35;;;;;;;23.40;15.45;;;3.60;99.90;;;;;;4896950;29;20148;-67
2021/12/10 04:28:07;;;;;;;25.90;15.30;;;3.50;99.90;;;;;;4881214;29;20199;-67
2021/12/10 04:30:39;;;;;;;26.52;15.88;;;3.40;99.90;;;;;;4915191;29;20159;-66
2021/12/10 04:33:06;;;;;;;24.15;16.00;;;3.60;99.90;;;;;;4899263;29;20045;-67
2021/12/10 04:35:32;;;;;;;25.10;15.90;;;3.40;99.90;;;;;;4894970;29;20067;-68
2021/12/10 04:37:59;;;;;;;24.48;15.23;;;3.20;99.90;;;;;;4897548;29;20103;-67
2021/12/10 04:40:25;;;;;;;24.98;15.73;;;3.20;99.90;;;;;;4883650;29;20052;-67
2021/12/10 04:42:51;;;;;;;26.48;15.48;;;3.10;99.90;;;;;;4899482;29;20503;-66
2021/12/10 04:45:18;;;;;;;21.90;14.95;;;3.20;99.90;;;;;;4913868;29;20052;-67
2021/12/10 04:47:45;;;;;;;25.13;15.25;;;2.90;99.90;;;;;;4907942;29;20072;-68
2021/12/10 04:50:13;;;;;;;22.85;15.02;;;3.40;99.90;;;;;;4898105;29;20135;-68
2021/12/10 04:52:39;;;;;;;22.77;15.95;;;3.00;99.90;;;;;;4916828;29;20067;-68
2021/12/10 04:55:08;;;;;;;26.63;16.30;;;3.40;99.90;;;;;;4915021;29;20482;-66
2021/12/10 04:57:34;;;;;;;23.75;15.63;;;3.00;99.90;;;;;;4862205;29;20108;-67
2021/12/10 05:00:00;;;;;;;33.20;16.13;;;2.80;99.90;;;;;;4910203;29;20081;-67
2021/12/10 05:02:27;;;;;;;23.60;15.77;;;2.80;99.90;;;;;;4919186;29;20060;-67
2021/12/10 05:04:57;;;;;;;24.77;16.80;;;2.80;99.90;;;;;;4902302;29;20053;-67
2021/12/10 05:07:23;;;;;;;28.42;16.85;;;2.70;99.90;;;;;;4919319;29;20405;-67
2021/12/10 05:09:48;;;;;;;28.77;17.35;;;2.80;99.90;;;;;;4908293;29;20051;-68
2021/12/10 05:12:14;;;;;;;29.45;17.27;;;2.80;99.90;;;;;;4916809;29;20613;-67
2021/12/10 05:14:40;;;;;;;27.00;17.15;;;3.00;99.90;;;;;;4905118;29;20059;-68
2021/12/10 05:17:08;;;;;;;27.60;18.02;;;2.80;99.90;;;;;;4917265;29;20056;-67
2021/12/10 05:19:39;;;;;;;29.15;17.98;;;2.80;99.90;;;;;;4921753;29;20060;-67
2021/12/10 05:22:08;;;;;;;26.45;17.55;;;2.80;99.90;;;;;;4918113;29;20078;-67
2021/12/10 05:24:34;;;;;;;27.60;17.23;;;2.70;99.90;;;;;;4888689;29;20048;-67
2021/12/10 05:27:00;;;;;;;26.38;17.85;;;2.60;99.90;;;;;;4918360;29;20449;-68
2021/12/10 05:29:26;;;;;;;25.30;17.23;;;2.50;99.90;;;;;;4918820;29;20143;-68
2021/12/10 05:31:55;;;;;;;25.75;16.63;;;2.50;99.90;;;;;;4918736;29;20091;-68
2021/12/10 05:34:21;;;;;;;25.30;16.70;;;2.60;99.90;;;;;;4893906;29;20050;-68
2021/12/10 05:36:46;;;;;;;24.08;16.95;;;2.90;99.90;;;;;;4902140;29;20139;-66
2021/12/10 05:39:14;;;;;;;26.40;16.17;;;2.50;99.90;;;;;;4901157;29;20052;-66
2021/12/10 05:41:40;;;;;;;24.15;17.42;;;2.60;99.90;;;;;;4901102;29;20350;-68
2021/12/10 05:44:06;;;;;;;23.27;16.30;;;2.60;99.90;;;;;;4917845;29;20098;-68
2021/12/10 05:46:37;;;;;;;25.95;16.30;;;2.50;99.90;;;;;;4888166;29;20076;-66
2021/12/10 05:49:03;;;;;;;23.80;15.88;;;2.40;99.90;;;;;;4887127;29;20056;-67
2021/12/10 05:51:29;;;;;;;24.65;16.83;;;2.50;99.90;;;;;;4901211;29;20067;-67
2021/12/10 05:53:54;;;;;;;23.90;14.80;;;2.30;99.90;;;;;;4907598;29;20056;-67
2021/12/10 05:56:20;;;;;;;21.52;14.35;;;2.30;99.90;;;;;;4918057;29;20056;-66
2021/12/10 05:58:46;;;;;;;20.85;14.02;;;2.40;99.90;;;;;;4917989;29;20051;-66
2021/12/10 06:01:15;;;;;;;20.35;14.23;;;2.20;99.90;;;;;;4890933;29;20090;-67
2021/12/10 06:03:51;;;;;;;18.83;13.40;;;2.20;99.90;;;;;;4882954;29;20060;-68
2021/12/10 06:06:18;;;;;;;20.15;12.75;;;2.20;99.90;;;;;;4917628;29;20055;-67
2021/12/10 06:08:44;;;;;;;23.85;13.93;;;2.10;99.90;;;;;;4917738;29;20060;-68
2021/12/10 06:11:09;;;;;;;22.40;13.95;;;2.10;99.90;;;;;;4910114;29;20076;-66
2021/12/10 06:13:35;;;;;;;19.55;14.07;;;2.10;99.90;;;;;;4883146;29;20406;-68
2021/12/10 06:16:02;;;;;;;20.85;13.68;;;2.00;99.90;;;;;;4899126;29;20497;-68
2021/12/10 06:18:28;;;;;;;21.30;13.70;;;2.20;99.90;;;;;;4900321;29;20159;-66
2021/12/10 06:20:54;;;;;;;20.83;12.85;;;1.90;99.90;;;;;;4912938;29;20501;-67
2021/12/10 06:23:21;;;;;;;18.67;12.68;;;2.20;99.90;;;;;;4882933;29;20071;-67
2021/12/10 06:25:47;;;;;;;21.92;12.70;;;2.70;99.90;;;;;;4886345;29;20068;-67
2021/12/10 06:28:14;;;;;;;20.25;13.00;;;1.90;99.90;;;;;;4899001;29;20056;-68
2021/12/10 06:30:43;;;;;;;19.25;12.85;;;2.00;99.90;;;;;;4898890;29;20084;-67
2021/12/10 06:33:13;;;;;;;20.25;12.82;;;2.10;99.90;;;;;;4910839;29;20065;-68
2021/12/10 06:35:40;;;;;;;18.95;13.15;;;2.20;99.90;;;;;;4913058;29;20056;-67
2021/12/10 06:38:07;;;;;;;23.50;12.57;;;1.80;99.90;;;;;;4900865;29;20107;-67
2021/12/10 06:40:37;;;;;;;18.10;12.43;;;1.80;99.90;;;;;;4914039;29;20060;-67
2021/12/10 06:43:03;;;;;;;18.17;12.45;;;1.90;99.90;;;;;;4915796;29;20062;-68
2021/12/10 06:45:30;;;;;;;20.35;13.32;;;1.80;99.90;;;;;;4899974;29;20111;-66
2021/12/10 06:48:00;;;;;;;20.58;13.68;;;1.80;99.90;;;;;;4897175;29;20048;-67
2021/12/10 06:50:30;;;;;;;21.85;13.27;;;1.70;99.90;;;;;;4909977;29;20059;-67
2021/12/10 06:52:57;;;;;;;19.52;12.80;;;1.80;99.90;;;;;;4898361;29;20403;-67
2021/12/10 06:55:23;;;;;;;20.25;11.95;;;1.70;99.90;;;;;;4880600;29;20064;-68
2021/12/10 06:57:49;;;;;;;19.52;13.15;;;1.60;99.90;;;;;;4911107;29;20572;-67
2021/12/10 07:00:22;;;;;;;19.08;11.95;;;1.70;99.90;;;;;;4884673;29;20173;-66
2021/12/10 07:02:48;;;;;;;21.00;12.25;;;1.70;99.90;;;;;;4888136;29;20131;-67
2021/12/10 07:05:14;;;;;;;17.77;11.43;;;1.50;99.90;;;;;;4896029;29;20176;-67
2021/12/10 07:07:39;;;;;;;17.92;11.40;;;1.50;99.90;;;;;;4899152;29;20052;-68
2021/12/10 07:10:08;;;;;;;18.17;11.52;;;1.50;99.90;;;;;;4895252;29;20453;-66
2021/12/10 07:12:35;;;;;;;17.65;11.30;;;1.50;99.90;;;;;;4898008;29;20053;-68
2021/12/10 07:15:02;;;;;;;17.70;11.48;;;1.50;99.90;;;;;;4903361;29;20063;-68
2021/12/10 07:17:28;;;;;;;19.33;12.00;;;1.40;99.90;;;;;;4901741;29;20496;-66
2021/12/10 07:19:54;;;;;;;19.55;10.77;;;1.40;99.90;;;;;;4916920;29;20056;-67
2021/12/10 07:22:20;;;;;;;16.23;10.35;;;1.40;99.90;;;;;;4916161;29;20099;-67
2021/12/10 07:24:45;;;;;;;17.98;10.75;;;1.40;99.90;;;;;;4916736;29;20048;-67
2021/12/10 07:27:12;;;;;;;15.20;9.93;;;1.40;99.90;;;;;;4910650;29;20060;-68
2021/12/10 07:29:39;;;;;;;18.55;11.55;;;1.40;99.90;;;;;;4908745;29;20064;-66
2021/12/10 07:32:05;;;;;;;19.30;11.23;;;1.40;99.90;;;;;;4908032;29;20099;-66
2021/12/10 07:34:31;;;;;;;18.77;11.27;;;1.50;99.90;;;;;;4897124;29;20103;-68
2021/12/10 07:36:56;;;;;;;17.60;11.05;;;1.50;99.90;;;;;;4902643;29;20505;-68
2021/12/10 07:39:22;;;;;;;15.60;9.65;;;1.30;99.90;;;;;;4898048;29;20080;-67
2021/12/10 07:41:48;;;;;;;17.52;10.23;;;1.40;99.90;;;;;;4898104;29;20134;-67
2021/12/10 07:44:13;;;;;;;18.27;11.35;;;1.20;99.90;;;;;;4888877;29;20128;-67
2021/12/10 07:46:40;;;;;;;14.82;9.95;;;1.30;99.90;;;;;;4883166;29;20374;-67
2021/12/10 07:49:13;;;;;;;15.75;9.85;;;1.30;99.90;;;;;;4899934;29;20118;-67
2021/12/10 07:51:39;;;;;;;19.58;10.82;;;1.30;99.90;;;;;;4898668;29;20059;-67
2021/12/10 07:54:05;;;;;;;14.90;9.70;;;1.40;99.90;;;;;;4889257;29;20397;-67
2021/12/10 07:56:32;;;;;;;14.75;10.07;;;1.40;99.90;;;;;;4916047;29;20060;-68
2021/12/10 07:58:59;;;;;;;14.65;8.95;;;1.80;99.90;;;;;;4896374;29;20044;-67
2021/12/10 08:01:28;;;;;;;15.40;9.73;;;1.40;99.90;;;;;;4908963;29;20072;-67
2021/12/10 08:03:56;;;;;;;16.73;9.90;;;1.40;99.90;;;;;;4915849;29;20410;-67
2021/12/10 08:06:22;;;;;;;14.82;9.23;;;1.40;99.90;;;;;;4899396;29;20040;-67
2021/12/10 08:08:48;;;;;;;16.15;9.38;;;1.40;99.90;;;;;;4896929;29;20075;-67
2021/12/10 08:11:15;;;;;;;16.23;9.88;;;1.40;99.90;;;;;;4916238;29;20052;-66
2021/12/10 08:13:41;;;;;;;18.77;10.07;;;1.40;99.90;;;;;;4903101;29;20502;-67
2021/12/10 08:16:06;;;;;;;12.40;8.48;;;1.40;99.90;;;;;;4880783;29;20067;-66
2021/12/10 08:18:32;;;;;;;15.85;8.95;;;1.40;99.90;;;;;;4881225;29;20474;-68
2021/12/10 08:20:58;;;;;;;16.80;9.40;;;1.40;99.90;;;;;;4897239;29;20060;-68
2021/12/10 08:23:24;;;;;;;16.42;9.40;;;1.50;99.90;;;;;;4880725;29;20052;-67
2021/12/10 08:25:51;;;;;;;14.43;9.40;;;1.50;99.90;;;;;;4893159;29;20523;-67
2021/12/10 08:28:21;;;;;;;17.15;8.88;;;1.50;99.90;;;;;;4915087;29;20127;-66
2021/12/10 08:30:47;;;;;;;15.07;8.90;;;1.60;99.90;;;;;;4882811;29;20044;-67
2021/12/10 08:33:13;;;;;;;17.35;9.23;;;1.60;99.90;;;;;;4885410;29;20052;-66
2021/12/10 08:35:42;;;;;;;13.40;9.05;;;1.70;99.90;;;;;;4895194;29;20052;-66
2021/12/10 08:38:08;;;;;;;16.17;9.32;;;1.70;99.90;;;;;;4899752;29;20413;-67
2021/12/10 08:40:41;;;;;;;14.73;9.10;;;1.70;99.90;;;;;;4910898;29;20044;-67
2021/12/10 08:43:07;;;;;;;13.30;8.45;;;1.70;99.90;;;;;;4919917;29;20128;-67
2021/12/10 08:45:34;;;;;;;12.40;8.30;;;1.70;99.90;;;;;;4919697;29;20127;-68
2021/12/10 08:48:01;;;;;;;12.25;8.27;;;1.80;99.90;;;;;;4900957;29;20063;-67
2021/12/10 08:50:27;;;;;;;13.02;8.40;;;1.80;99.90;;;;;;4906740;29;20056;-67
2021/12/10 08:53:00;;;;;;;16.67;8.35;;;1.80;99.90;;;;;;4902648;29;20056;-67
2021/12/10 08:55:28;;;;;;;13.70;8.10;;;1.80;99.90;;;;;;4918785;29;20119;-67
2021/12/10 08:57:54;;;;;;;15.75;8.98;;;1.90;99.90;;;;;;4902497;29;20160;-67
2021/12/10 09:00:20;;;;;;;12.30;8.32;;;1.90;99.90;;;;;;4908836;29;20111;-67
2021/12/10 09:02:48;;;;;;;13.00;8.32;;;1.90;99.90;;;;;;4906295;29;20076;-67
2021/12/10 09:05:14;;;;;;;12.43;8.32;;;2.00;99.90;;;;;;4908004;29;20395;-67
2021/12/10 09:07:43;;;;;;;16.02;8.52;;;2.00;99.90;;;;;;4899398;29;20060;-67
2021/12/10 09:10:10;;;;;;;12.63;8.13;;;2.10;99.90;;;;;;4891192;29;20059;-66
2021/12/10 09:12:37;;;;;;;13.15;8.55;;;2.10;99.90;;;;;;4918750;29;20429;-67
2021/12/10 09:15:06;;;;;;;12.52;8.55;;;2.20;99.90;;;;;;4901222;29;20056;-67
2021/12/10 09:17:33;;;;;;;13.93;8.00;;;2.30;99.90;;;;;;4903746;29;20052;-67
2021/12/10 09:20:03;;;;;;;12.68;7.88;;;2.30;99.90;;;;;;4901295;29;20060;-68
2021/12/10 09:22:29;;;;;;;11.50;7.65;;;2.30;99.90;;;;;;4918947;29;20496;-67
2021/12/10 09:24:56;;;;;;;11.15;7.68;;;2.40;99.90;;;;;;4908594;29;20136;-67
2021/12/10 09:27:23;;;;;;;13.93;7.80;;;2.40;99.90;;;;;;4916111;29;20564;-67
2021/12/10 09:29:52;;;;;;;11.02;7.32;;;2.40;99.90;;;;;;4912408;29;20425;-67
2021/12/10 09:32:20;;;;;;;16.45;8.50;;;2.40;99.90;;;;;;4885728;29;20041;-68
2021/12/10 09:34:47;;;;;;;9.75;7.20;;;2.50;99.90;;;;;;4899870;29;20098;-67
2021/12/10 09:37:15;;;;;;;9.65;6.97;;;2.60;99.90;;;;;;4899106;29;20143;-68
2021/12/10 09:39:43;;;;;;;18.08;8.50;;;2.60;99.90;;;;;;4899378;29;20409;-68
2021/12/10 09:42:08;;;;;;;10.25;6.93;;;2.70;99.90;;;;;;4898894;29;20052;-68
2021/12/10 09:44:36;;;;;;;9.40;6.72;;;2.70;99.90;;;;;;4899311;29;20051;-68
2021/12/10 09:47:04;;;;;;;11.60;7.38;;;2.70;99.90;;;;;;4882499;29;20495;-69
2021/12/10 09:49:30;;;;;;;10.75;7.07;;;2.80;99.90;;;;;;4882710;29;20403;-69
2021/12/10 09:52:00;;;;;;;10.60;7.20;;;2.90;99.90;;;;;;4882894;29;20048;-69
2021/12/10 09:54:29;;;;;;;11.02;6.45;;;2.90;99.90;;;;;;4875549;29;20052;-68
2021/12/10 09:56:58;;;;;;;10.15;7.03;;;;;;;;;;4900936;29;20507;-70
2021/12/10 09:59:24;;;;;;;9.95;7.20;;;3.00;99.90;;;;;;4901732;29;20056;-69
2021/12/10 10:01:52;;;;;;;11.93;7.88;;;3.10;99.90;;;;;;4910508;29;20477;-69
2021/12/10 10:04:19;;;;;;;9.70;6.40;;;3.10;99.90;;;;;;4898335;29;20056;-66
2021/12/10 10:06:50;;;;;;;9.70;6.75;;;3.20;99.90;;;;;;4883074;29;20399;-67
2021/12/10 10:09:18;;;;;;;9.35;6.97;;;3.20;99.90;;;;;;4899462;29;20056;-68
2021/12/10 10:11:49;;;;;;;12.73;6.70;;;3.40;99.90;;;;;;4898975;29;20045;-71
2021/12/10 10:14:15;;;;;;;10.30;6.40;;;3.30;99.90;;;;;;4882596;29;20132;-68
2021/12/10 10:16:44;;;;;;;9.15;6.35;;;3.40;99.90;;;;;;4899284;29;20481;-67
2021/12/10 10:19:12;;;;;;;10.90;6.93;;;3.40;99.90;;;;;;4898381;29;20104;-67
2021/12/10 10:21:43;;;;;;;11.18;6.72;;;3.40;99.90;;;;;;4898889;29;20071;-68
2021/12/10 10:24:10;;;;;;;10.93;6.63;;;3.50;99.90;;;;;;4898868;29;20053;-69
2021/12/10 10:26:39;;;;;;;8.80;6.05;;;3.50;99.90;;;;;;4882294;29;20127;-70
2021/12/10 10:29:09;;;;;;;9.35;6.30;;;3.50;99.90;;;;;;4898920;29;20513;-69
2021/12/10 10:31:39;;;;;;;7.90;5.85;;;3.60;99.90;;;;;;4899169;29;20063;-69
2021/12/10 10:34:07;;;;;;;9.65;5.53;;;3.60;99.90;;;;;;4881850;29;20056;-67
2021/12/10 10:36:33;;;;;;;12.10;6.35;;;3.70;99.90;;;;;;4898963;29;20095;-68
2021/12/10 10:39:09;;;;;;;10.25;6.18;;;3.70;99.90;;;;;;4882251;29;20049;-68
2021/12/10 10:41:37;;;;;;;8.32;5.65;;;3.80;99.90;;;;;;4898550;29;20056;-69
2021/12/10 10:44:04;;;;;;;10.00;6.25;;;3.80;99.90;;;;;;4897226;29;20074;-69
2021/12/10 10:46:30;;;;;;;12.20;7.00;;;3.80;99.90;;;;;;4882338;29;20131;-68
2021/12/10 10:48:55;;;;;;;7.75;6.10;;;4.00;99.90;;;;;;4898501;29;20091;-70
2021/12/10 10:51:27;;;;;;;8.70;5.95;;;;;;;;;;4898808;29;20087;-69
2021/12/10 10:53:54;;;;;;;9.43;6.97;;;3.90;99.90;;;;;;4880657;29;20057;-68
2021/12/10 10:56:41;;;;;;;9.52;5.85;;;4.00;99.90;;;;;;4899987;29;20155;-67
2021/12/10 10:59:14;;;;;;;9.93;6.15;;;4.00;99.90;;;;;;4908080;29;20374;-68
2021/12/10 11:01:57;;;;;;;6.35;4.95;;;4.10;99.90;;;;;;4883094;29;20061;-69
2021/12/10 11:04:30;;;;;;;6.65;5.00;;;4.10;99.90;;;;;;4917303;29;20067;-69
2021/12/10 11:07:04;;;;;;;9.75;6.18;;;;;;;;;;4862288;29;20052;-69
2021/12/10 11:09:32;;;;;;;6.70;5.53;;;4.30;99.90;;;;;;4892638;29;20127;-69
2021/12/10 11:12:05;;;;;;;7.43;5.55;;;4.40;99.90;;;;;;4916356;29;20523;-68
2021/12/10 11:14:33;;;;;;;7.05;5.25;;;4.30;99.90;;;;;;4917326;29;20052;-68
2021/12/10 11:17:15;;;;;;;8.27;5.20;;;4.20;99.90;;;;;;4899321;29;20059;-68
2021/12/10 11:19:50;;;;;;;12.40;5.65;;;4.30;99.90;;;;;;4898296;29;20092;-69
2021/12/10 11:22:16;;;;;;;6.68;5.68;;;4.40;99.90;;;;;;4881189;29;20057;-69
2021/12/10 11:24:56;;;;;;;7.97;5.53;;;4.50;99.90;;;;;;4880849;29;20098;-68
2021/12/10 11:27:29;;;;;;;10.52;5.20;;;4.50;99.90;;;;;;4877765;29;20064;-66
2021/12/10 11:30:01;;;;;;;10.43;5.30;;;4.70;99.90;;;;;;4870407;29;20055;-68
2021/12/10 11:32:54;;;;;;;6.53;4.88;;;;;;;;;;4901246;29;20100;-68
2021/12/10 11:35:25;;;;;;;5.65;5.03;;;;;;;;;;4873404;29;20079;-67
2021/12/10 11:37:51;;;;;;;7.20;4.47;;;;;;;;;;4895920;29;20100;-67
2021/12/10 11:40:33;;;;;;;7.82;5.07;;;;;;;;;;4897185;29;20056;-69
2021/12/10 11:43:15;;;;;;;7.15;5.18;;;;;;;;;;4897845;29;20056;-67
2021/12/10 11:45:44;;;;;;;8.73;5.32;;;;;;;;;;4897308;29;20056;-68
2021/12/10 11:48:13;;;;;;;7.43;4.65;;;;;;;;;;4863907;29;20136;-67
2021/12/10 11:50:47;;;;;;;9.55;4.85;;;;;;;;;;4897631;29;20113;-67
2021/12/10 11:53:15;;;;;;;6.63;3.92;;;;;;;;;;4897478;29;20056;-67
2021/12/10 11:55:53;;;;;;;7.90;4.57;;;;;;;;;;4892443;29;20062;-68
2021/12/10 11:58:19;;;;;;;6.05;4.05;;;;;;;;;;4900662;29;20060;-68
2021/12/10 12:00:46;;;;;;;9.68;4.65;;;;;;;;;;4916329;29;20060;-67
2021/12/10 12:03:13;;;;;;;6.25;4.05;;;;;;;;;;4884841;29;20120;-68
2021/12/10 12:05:41;;;;;;;8.60;4.07;;;5.00;99.90;;;;;;4912856;29;20104;-67
2021/12/10 12:08:14;;;;;;;7.60;4.20;;;5.00;99.90;;;;;;4917469;29;20048;-68
2021/12/10 12:10:43;;;;;;;7.93;4.65;;;5.00;99.90;;;;;;4903096;29;20060;-67
2021/12/10 12:15:54;;;;;;;10.27;5.07;;;5.00;99.90;;;;;;4901523;29;20059;-67
2021/12/10 12:18:39;;;;;;;6.45;4.63;;;5.00;99.90;;;;;;4901357;29;20056;-68
2021/12/10 12:27:10;;;;;;;9.77;4.72;;;5.10;99.90;;;;;;4882188;29;20053;-68
2021/12/10 12:29:58;;;;;;;8.32;3.92;;;5.10;99.90;;;;;;4881397;29;20105;-69
2021/12/10 12:32:34;;;;;;;5.65;3.65;;;5.10;99.90;;;;;;4890016;29;20055;-68
2021/12/10 12:35:13;;;;;;;7.50;4.55;;;5.00;99.90;;;;;;4883047;29;20064;-69
2021/12/10 12:37:38;;;;;;;7.05;3.47;;;5.00;99.90;;;;;;4882806;29;20064;-68
2021/12/10 12:40:05;;;;;;;9.52;4.32;;;5.00;99.90;;;;;;4881233;29;20045;-69
2021/12/10 12:42:43;;;;;;;9.48;3.80;;;4.90;99.90;;;;;;4881859;29;20380;-68
2021/12/10 12:45:23;;;;;;;9.35;4.07;;;4.90;99.90;;;;;;4881352;29;20061;-68
2021/12/10 12:47:52;;;;;;;7.68;4.00;;;4.90;99.90;;;;;;4882301;29;20057;-69
2021/12/10 12:50:27;;;;;;;10.68;3.90;;;4.90;99.90;;;;;;4865232;29;20057;-69
2021/12/10 12:52:57;;;;;;;6.30;3.85;;;4.90;99.90;;;;;;4882247;29;20056;-69
2021/12/10 12:55:29;;;;;;;5.20;3.25;;;4.90;99.90;;;;;;4889548;29;20501;-69
2021/12/10 12:58:13;;;;;;;6.63;3.58;;;4.90;99.90;;;;;;4899700;29;20569;-68
2021/12/10 13:01:02;;;;;;;5.22;3.40;;;4.90;99.90;;;;;;4883459;29;20061;-68
2021/12/10 13:03:29;;;;;;;5.78;3.50;;;4.90;99.90;;;;;;4901173;29;20446;-68
2021/12/10 13:05:58;;;;;;;8.30;3.50;;;4.90;99.90;;;;;;4900518;29;20397;-68
2021/12/10 13:08:32;;;;;;;6.50;3.78;;;5.00;99.90;;;;;;4900780;29;20056;-67
2021/12/10 13:11:06;;;;;;;6.57;3.30;;;5.30;99.90;;;;;;4899895;29;20100;-68
2021/12/10 13:13:37;;;;;;;7.55;3.67;;;5.10;99.90;;;;;;4868442;29;20056;-67
2021/12/10 13:16:07;;;;;;;6.25;3.83;;;4.90;99.90;;;;;;4900235;29;20068;-67
2021/12/10 13:18:33;;;;;;;7.35;3.53;;;5.00;99.90;;;;;;4881818;29;20437;-68